sensor_id;sensor_type;location;lat;lon;timestamp;pressure;altitude;pressure_sealevel;temperature;humidity
26859;BME280;14429;48.346;16.338;2023-07-31T00:02:19;99584.50;;;26.78;47.24
26859;BME280;14429;48.346;16.338;2023-07-31T00:04:44;99580.28;;;26.94;47.29
26859;BME280;14429;48.346;16.338;2023-07-31T00:07:09;99577.34;;;26.83;47.42
26859;BME280;14429;48.346;16.338;2023-07-31T00:09:36;99591.22;;;26.94;47.25
26859;BME280;14429;48.346;16.338;2023-07-31T00:12:02;99585.97;;;26.86;47.55
26859;BME280;14429;48.346;16.338;2023-07-31T00:14:28;99591.22;;;26.88;47.41
26859;BME280;14429;48.346;16.338;2023-07-31T00:16:54;99596.72;;;26.81;47.12
26859;BME280;14429;48.346;16.338;2023-07-31T00:19:19;99591.22;;;26.94;47.11
26859;BME280;14429;48.346;16.338;2023-07-31T00:21:45;99593.53;;;26.72;47.75
26859;BME280;14429;48.346;16.338;2023-07-31T00:24:10;99586.78;;;26.80;47.53
26859;BME280;14429;48.346;16.338;2023-07-31T00:26:35;99592.31;;;26.93;47.21
26859;BME280;14429;48.346;16.338;2023-07-31T00:29:01;99592.91;;;26.95;47.15
26859;BME280;14429;48.346;16.338;2023-07-31T00:31:28;99600.50;;;26.93;47.12
26859;BME280;14429;48.346;16.338;2023-07-31T00:33:53;99602.19;;;26.94;47.08
26859;BME280;14429;48.346;16.338;2023-07-31T00:36:18;99597.38;;;26.96;46.90
26859;BME280;14429;48.346;16.338;2023-07-31T00:38:44;99590.38;;;26.87;47.16
26859;BME280;14429;48.346;16.338;2023-07-31T00:41:09;99587.84;;;26.92;47.02
26859;BME280;14429;48.346;16.338;2023-07-31T00:43:35;99586.19;;;26.85;47.31
26859;BME280;14429;48.346;16.338;2023-07-31T00:46:00;99590.41;;;26.94;47.10
26859;BME280;14429;48.346;16.338;2023-07-31T00:48:28;99596.31;;;26.97;47.03
26859;BME280;14429;48.346;16.338;2023-07-31T00:50:53;99599.66;;;26.99;46.88
26859;BME280;14429;48.346;16.338;2023-07-31T00:53:19;99594.19;;;26.99;46.84
26859;BME280;14429;48.346;16.338;2023-07-31T00:55:45;99591.44;;;26.99;46.79
26859;BME280;14429;48.346;16.338;2023-07-31T00:58:10;99592.09;;;27.01;46.81
26859;BME280;14429;48.346;16.338;2023-07-31T01:00:36;99592.06;;;26.88;47.14
26859;BME280;14429;48.346;16.338;2023-07-31T01:03:01;99589.91;;;26.65;47.52
26859;BME280;14429;48.346;16.338;2023-07-31T01:05:40;99588.19;;;26.38;46.73
26859;BME280;14429;48.346;16.338;2023-07-31T01:08:12;99572.63;;;26.45;47.67
26859;BME280;14429;48.346;16.338;2023-07-31T01:10:48;99578.09;;;26.45;44.56
26859;BME280;14429;48.346;16.338;2023-07-31T01:13:14;99580.16;;;26.24;48.38
26859;BME280;14429;48.346;16.338;2023-07-31T01:15:40;99578.94;;;26.46;47.75
26859;BME280;14429;48.346;16.338;2023-07-31T01:18:05;99576.88;;;26.67;47.47
26859;BME280;14429;48.346;16.338;2023-07-31T01:20:33;99577.72;;;26.67;47.42
26859;BME280;14429;48.346;16.338;2023-07-31T01:23:26;99573.13;;;26.74;47.35
26859;BME280;14429;48.346;16.338;2023-07-31T01:26:03;99582.19;;;26.75;47.41
26859;BME280;14429;48.346;16.338;2023-07-31T01:28:36;99582.72;;;26.51;46.29
26859;BME280;14429;48.346;16.338;2023-07-31T01:31:07;99573.97;;;26.75;47.29
26859;BME280;14429;48.346;16.338;2023-07-31T01:33:33;99576.50;;;26.82;46.91
26859;BME280;14429;48.346;16.338;2023-07-31T01:36:00;99586.19;;;26.85;46.99
26859;BME280;14429;48.346;16.338;2023-07-31T01:38:26;99573.97;;;26.87;46.83
26859;BME280;14429;48.346;16.338;2023-07-31T01:40:52;99586.13;;;26.66;47.11
26859;BME280;14429;48.346;16.338;2023-07-31T01:43:19;99589.56;;;26.87;46.67
26859;BME280;14429;48.346;16.338;2023-07-31T01:45:45;99601.72;;;26.59;47.11
26859;BME280;14429;48.346;16.338;2023-07-31T01:48:10;99597.34;;;26.83;46.91
26859;BME280;14429;48.346;16.338;2023-07-31T01:50:35;99589.34;;;26.76;46.89
26859;BME280;14429;48.346;16.338;2023-07-31T01:53:01;99593.28;;;26.60;46.26
26859;BME280;14429;48.346;16.338;2023-07-31T01:55:26;99592.09;;;26.82;47.06
26859;BME280;14429;48.346;16.338;2023-07-31T01:57:51;99589.06;;;26.64;46.73
26859;BME280;14429;48.346;16.338;2023-07-31T02:00:18;99596.09;;;26.86;46.72
26859;BME280;14429;48.346;16.338;2023-07-31T02:02:44;99596.69;;;26.88;46.66
26859;BME280;14429;48.346;16.338;2023-07-31T02:05:09;99600.50;;;26.93;46.40
26859;BME280;14429;48.346;16.338;2023-07-31T02:07:35;99599.66;;;26.99;46.35
26859;BME280;14429;48.346;16.338;2023-07-31T02:10:00;99593.75;;;27.02;46.36
26859;BME280;14429;48.346;16.338;2023-07-31T02:12:25;99609.34;;;27.02;46.34
26859;BME280;14429;48.346;16.338;2023-07-31T02:14:51;99614.00;;;27.01;46.26
26859;BME280;14429;48.346;16.338;2023-07-31T02:17:18;99608.53;;;27.01;46.36
26859;BME280;14429;48.346;16.338;2023-07-31T02:19:43;99605.97;;;27.00;46.29
26859;BME280;14429;48.346;16.338;2023-07-31T02:22:09;99606.84;;;27.00;46.29
26859;BME280;14429;48.346;16.338;2023-07-31T02:24:34;99610.59;;;26.99;46.39
26859;BME280;14429;48.346;16.338;2023-07-31T02:26:59;99616.94;;;27.00;46.14
26859;BME280;14429;48.346;16.338;2023-07-31T02:29:25;99622.00;;;26.96;46.22
26859;BME280;14429;48.346;16.338;2023-07-31T02:31:50;99613.78;;;26.96;46.28
26859;BME280;14429;48.346;16.338;2023-07-31T02:34:17;99618.63;;;26.94;46.34
26859;BME280;14429;48.346;16.338;2023-07-31T02:36:42;99611.91;;;26.97;46.34
26859;BME280;14429;48.346;16.338;2023-07-31T02:39:08;99621.78;;;26.98;46.27
26859;BME280;14429;48.346;16.338;2023-07-31T02:41:33;99620.13;;;26.97;46.22
26859;BME280;14429;48.346;16.338;2023-07-31T02:43:59;99615.44;;;26.84;46.38
26859;BME280;14429;48.346;16.338;2023-07-31T02:46:24;99615.69;;;26.89;46.35
26859;BME280;14429;48.346;16.338;2023-07-31T02:48:49;99619.69;;;26.93;46.41
26859;BME280;14429;48.346;16.338;2023-07-31T02:51:16;99622.84;;;26.90;46.31
26859;BME280;14429;48.346;16.338;2023-07-31T02:53:42;99618.63;;;26.94;46.23
26859;BME280;14429;48.346;16.338;2023-07-31T02:56:07;99621.78;;;26.91;46.21
26859;BME280;14429;48.346;16.338;2023-07-31T02:58:32;99624.31;;;26.86;46.44
26859;BME280;14429;48.346;16.338;2023-07-31T03:00:58;99624.94;;;26.88;46.38
26859;BME280;14429;48.346;16.338;2023-07-31T03:03:23;99628.31;;;26.90;46.50
26859;BME280;14429;48.346;16.338;2023-07-31T03:05:49;99625.78;;;26.89;46.62
26859;BME280;14429;48.346;16.338;2023-07-31T03:08:15;99623.88;;;26.83;46.56
26859;BME280;14429;48.346;16.338;2023-07-31T03:10:41;99627.03;;;26.80;45.93
26859;BME280;14429;48.346;16.338;2023-07-31T03:13:06;99628.13;;;26.85;46.12
26859;BME280;14429;48.346;16.338;2023-07-31T03:15:32;99619.44;;;26.88;46.38
26859;BME280;14429;48.346;16.338;2023-07-31T03:17:57;99626.00;;;26.87;46.27
26859;BME280;14429;48.346;16.338;2023-07-31T03:20:22;99632.50;;;26.80;46.34
26859;BME280;14429;48.346;16.338;2023-07-31T03:22:48;99628.94;;;26.80;46.61
26859;BME280;14429;48.346;16.338;2023-07-31T03:25:15;99632.72;;;26.79;46.43
26859;BME280;14429;48.346;16.338;2023-07-31T03:27:40;99645.38;;;26.80;46.39
26859;BME280;14429;48.346;16.338;2023-07-31T03:30:06;99649.78;;;26.80;46.47
26859;BME280;14429;48.346;16.338;2023-07-31T03:32:32;99649.78;;;26.80;46.39
26859;BME280;14429;48.346;16.338;2023-07-31T03:34:58;99652.72;;;26.79;46.17
26859;BME280;14429;48.346;16.338;2023-07-31T03:37:23;99655.25;;;26.80;46.59
26859;BME280;14429;48.346;16.338;2023-07-31T03:39:48;99650.84;;;26.80;46.47
26859;BME280;14429;48.346;16.338;2023-07-31T03:42:15;99660.31;;;26.71;46.59
26859;BME280;14429;48.346;16.338;2023-07-31T03:44:41;99653.13;;;26.70;46.52
26859;BME280;14429;48.346;16.338;2023-07-31T03:47:06;99654.00;;;26.70;46.62
26859;BME280;14429;48.346;16.338;2023-07-31T03:49:31;99658.59;;;26.70;46.68
26859;BME280;14429;48.346;16.338;2023-07-31T03:51:57;99659.03;;;26.73;46.30
26859;BME280;14429;48.346;16.338;2023-07-31T03:54:22;99659.81;;;26.61;46.37
26859;BME280;14429;48.346;16.338;2023-07-31T03:56:48;99664.06;;;26.70;46.21
26859;BME280;14429;48.346;16.338;2023-07-31T03:59:14;99673.78;;;26.72;46.35
26859;BME280;14429;48.346;16.338;2023-07-31T04:01:40;99674.22;;;26.76;46.43
26859;BME280;14429;48.346;16.338;2023-07-31T04:04:05;99667.25;;;26.80;46.23
26859;BME280;14429;48.346;16.338;2023-07-31T04:06:31;99670.41;;;26.77;46.34
26859;BME280;14429;48.346;16.338;2023-07-31T04:08:56;99673.34;;;26.69;46.48
26859;BME280;14429;48.346;16.338;2023-07-31T04:11:21;99678.00;;;26.75;46.25
26859;BME280;14429;48.346;16.338;2023-07-31T04:13:47;99672.13;;;26.78;46.30
26859;BME280;14429;48.346;16.338;2023-07-31T04:16:14;99675.47;;;26.80;46.29
26859;BME280;14429;48.346;16.338;2023-07-31T04:18:39;99671.69;;;26.80;46.21
26859;BME280;14429;48.346;16.338;2023-07-31T04:21:05;99669.59;;;26.82;46.08
26859;BME280;14429;48.346;16.338;2023-07-31T04:23:30;99674.41;;;26.80;46.04
26859;BME280;14429;48.346;16.338;2023-07-31T04:25:56;99670.66;;;26.81;46.04
26859;BME280;14429;48.346;16.338;2023-07-31T04:28:21;99673.41;;;26.81;46.19
26859;BME280;14429;48.346;16.338;2023-07-31T04:30:47;99670.22;;;26.84;46.00
26859;BME280;14429;48.346;16.338;2023-07-31T04:33:13;99671.28;;;26.83;45.99
26859;BME280;14429;48.346;16.338;2023-07-31T04:35:39;99667.50;;;26.78;46.08
26859;BME280;14429;48.346;16.338;2023-07-31T04:38:04;99667.03;;;26.81;46.01
26859;BME280;14429;48.346;16.338;2023-07-31T04:40:30;99663.25;;;26.76;46.20
26859;BME280;14429;48.346;16.338;2023-07-31T04:42:55;99665.34;;;26.74;46.14
26859;BME280;14429;48.346;16.338;2023-07-31T04:45:20;99674.06;;;26.37;46.96
26859;BME280;14429;48.346;16.338;2023-07-31T04:47:46;99674.00;;;26.18;46.49
26859;BME280;14429;48.346;16.338;2023-07-31T04:50:13;99664.84;;;26.51;46.77
26859;BME280;14429;48.346;16.338;2023-07-31T04:52:39;99678.88;;;26.35;46.23
26859;BME280;14429;48.346;16.338;2023-07-31T04:55:05;99669.50;;;26.57;46.62
26859;BME280;14429;48.346;16.338;2023-07-31T04:57:30;99672.03;;;26.52;46.60
26859;BME280;14429;48.346;16.338;2023-07-31T04:59:55;99680.81;;;26.41;46.92
26859;BME280;14429;48.346;16.338;2023-07-31T05:02:21;99677.03;;;26.42;46.89
26859;BME280;14429;48.346;16.338;2023-07-31T05:04:46;99679.19;;;26.59;46.49
26859;BME280;14429;48.346;16.338;2023-07-31T05:07:13;99676.47;;;26.59;46.61
26859;BME280;14429;48.346;16.338;2023-07-31T05:09:38;99684.66;;;26.66;46.43
26859;BME280;14429;48.346;16.338;2023-07-31T05:12:05;99681.94;;;26.66;46.40
26859;BME280;14429;48.346;16.338;2023-07-31T05:14:30;99683.88;;;26.72;46.28
26859;BME280;14429;48.346;16.338;2023-07-31T05:16:56;99680.94;;;26.73;46.11
26859;BME280;14429;48.346;16.338;2023-07-31T05:19:21;99679.69;;;26.76;46.06
26859;BME280;14429;48.346;16.338;2023-07-31T05:21:46;99682.22;;;26.83;45.93
26859;BME280;14429;48.346;16.338;2023-07-31T05:24:13;99681.41;;;26.89;45.65
26859;BME280;14429;48.346;16.338;2023-07-31T05:26:38;99686.44;;;26.92;45.77
26859;BME280;14429;48.346;16.338;2023-07-31T05:29:04;99685.63;;;26.98;45.56
26859;BME280;14429;48.346;16.338;2023-07-31T05:31:29;99685.66;;;27.05;45.33
26859;BME280;14429;48.346;16.338;2023-07-31T05:33:55;99695.53;;;26.99;45.57
26859;BME280;14429;48.346;16.338;2023-07-31T05:36:20;99693.63;;;27.06;45.32
26859;BME280;14429;48.346;16.338;2023-07-31T05:38:45;99693.22;;;27.09;45.41
26859;BME280;14429;48.346;16.338;2023-07-31T05:41:12;99701.66;;;27.08;45.22
26859;BME280;14429;48.346;16.338;2023-07-31T05:43:38;99690.50;;;27.22;44.80
26859;BME280;14429;48.346;16.338;2023-07-31T05:46:03;99697.94;;;27.34;44.83
26859;BME280;14429;48.346;16.338;2023-07-31T05:48:29;99690.53;;;27.35;44.84
26859;BME280;14429;48.346;16.338;2023-07-31T05:50:54;99693.69;;;27.44;44.44
26859;BME280;14429;48.346;16.338;2023-07-31T05:53:20;99697.91;;;27.40;44.45
26859;BME280;14429;48.346;16.338;2023-07-31T05:55:45;99697.06;;;27.46;44.66
26859;BME280;14429;48.346;16.338;2023-07-31T05:58:12;99694.75;;;27.43;44.69
26859;BME280;14429;48.346;16.338;2023-07-31T06:00:37;99686.75;;;27.35;44.79
26859;BME280;14429;48.346;16.338;2023-07-31T06:03:03;99703.16;;;27.23;44.93
26859;BME280;14429;48.346;16.338;2023-07-31T06:05:28;99690.72;;;27.33;44.69
26859;BME280;14429;48.346;16.338;2023-07-31T06:07:53;99686.28;;;27.26;44.80
26859;BME280;14429;48.346;16.338;2023-07-31T06:10:19;99681.84;;;27.18;45.00
26859;BME280;14429;48.346;16.338;2023-07-31T06:12:44;99692.16;;;27.10;45.19
26859;BME280;14429;48.346;16.338;2023-07-31T06:15:11;99693.22;;;26.96;45.40
26859;BME280;14429;48.346;16.338;2023-07-31T06:17:37;99690.84;;;26.80;45.94
26859;BME280;14429;48.346;16.338;2023-07-31T06:20:02;99694.91;;;26.97;45.64
26859;BME280;14429;48.346;16.338;2023-07-31T06:22:28;99700.13;;;26.92;45.63
26859;BME280;14429;48.346;16.338;2023-07-31T06:24:53;99695.53;;;26.93;45.60
26859;BME280;14429;48.346;16.338;2023-07-31T06:27:19;99695.09;;;26.89;45.48
26859;BME280;14429;48.346;16.338;2023-07-31T06:29:44;99691.50;;;26.95;45.62
26859;BME280;14429;48.346;16.338;2023-07-31T06:32:11;99694.50;;;27.00;45.35
26859;BME280;14429;48.346;16.338;2023-07-31T06:34:36;99694.91;;;27.04;45.23
26859;BME280;14429;48.346;16.338;2023-07-31T06:37:02;99694.28;;;27.08;45.25
26859;BME280;14429;48.346;16.338;2023-07-31T06:39:27;99686.06;;;27.02;45.18
26859;BME280;14429;48.346;16.338;2023-07-31T06:41:52;99681.00;;;27.05;45.32
26859;BME280;14429;48.346;16.338;2023-07-31T06:44:18;99689.44;;;27.10;45.38
26859;BME280;14429;48.346;16.338;2023-07-31T06:46:43;99689.91;;;27.33;44.97
26859;BME280;14429;48.346;16.338;2023-07-31T06:49:10;99685.66;;;27.24;44.91
26859;BME280;14429;48.346;16.338;2023-07-31T06:51:35;99672.59;;;27.19;45.04
26859;BME280;14429;48.346;16.338;2023-07-31T06:54:01;99675.34;;;27.19;45.25
26859;BME280;14429;48.346;16.338;2023-07-31T06:56:26;99683.34;;;27.08;45.30
26859;BME280;14429;48.346;16.338;2023-07-31T06:58:52;99682.88;;;26.98;43.66
26859;BME280;14429;48.346;16.338;2023-07-31T07:01:17;99684.38;;;27.01;45.31
26859;BME280;14429;48.346;16.338;2023-07-31T07:03:42;99681.81;;;26.99;45.65
26859;BME280;14429;48.346;16.338;2023-07-31T07:06:09;99682.66;;;27.00;45.43
26859;BME280;14429;48.346;16.338;2023-07-31T07:08:34;99680.13;;;26.85;45.71
26859;BME280;14429;48.346;16.338;2023-07-31T07:11:00;99674.44;;;26.87;45.57
26859;BME280;14429;48.346;16.338;2023-07-31T07:13:25;99678.00;;;26.81;45.67
26859;BME280;14429;48.346;16.338;2023-07-31T07:15:51;99689.59;;;26.83;45.60
26859;BME280;14429;48.346;16.338;2023-07-31T07:18:16;99678.63;;;26.77;43.19
26859;BME280;14429;48.346;16.338;2023-07-31T07:20:46;99681.78;;;26.80;45.79
26859;BME280;14429;48.346;16.338;2023-07-31T07:23:13;99684.72;;;26.72;46.08
26859;BME280;14429;48.346;16.338;2023-07-31T07:25:39;99689.81;;;26.81;45.91
26859;BME280;14429;48.346;16.338;2023-07-31T07:28:04;99681.78;;;26.80;45.73
26859;BME280;14429;48.346;16.338;2023-07-31T07:30:29;99676.28;;;26.74;46.05
26859;BME280;14429;48.346;16.338;2023-07-31T07:32:55;99669.78;;;26.81;45.72
26859;BME280;14429;48.346;16.338;2023-07-31T07:35:20;99682.63;;;26.68;42.20
26859;BME280;14429;48.346;16.338;2023-07-31T07:37:48;99675.88;;;26.77;45.71
26859;BME280;14429;48.346;16.338;2023-07-31T07:40:15;99673.28;;;26.62;45.77
26859;BME280;14429;48.346;16.338;2023-07-31T07:42:40;99675.47;;;26.80;43.96
26859;BME280;14429;48.346;16.338;2023-07-31T07:45:07;99668.31;;;26.79;45.74
26859;BME280;14429;48.346;16.338;2023-07-31T07:47:32;99667.47;;;26.72;45.87
26859;BME280;14429;48.346;16.338;2023-07-31T07:49:57;99665.78;;;26.71;45.87
26859;BME280;14429;48.346;16.338;2023-07-31T07:52:23;99665.28;;;26.61;46.09
26859;BME280;14429;48.346;16.338;2023-07-31T07:54:48;99663.00;;;26.64;45.25
26859;BME280;14429;48.346;16.338;2023-07-31T07:57:15;99664.66;;;26.59;45.32
26859;BME280;14429;48.346;16.338;2023-07-31T07:59:41;99658.13;;;26.60;44.81
26859;BME280;14429;48.346;16.338;2023-07-31T08:02:06;99663.56;;;26.41;45.85
26859;BME280;14429;48.346;16.338;2023-07-31T08:04:32;99662.78;;;26.59;44.94
26859;BME280;14429;48.346;16.338;2023-07-31T08:06:57;99660.00;;;26.53;45.17
26859;BME280;14429;48.346;16.338;2023-07-31T08:09:22;99663.16;;;26.50;45.42
26859;BME280;14429;48.346;16.338;2023-07-31T08:11:48;99661.06;;;26.52;45.21
26859;BME280;14429;48.346;16.338;2023-07-31T08:14:14;99656.63;;;26.45;45.26
26859;BME280;14429;48.346;16.338;2023-07-31T08:16:40;99659.81;;;26.48;45.15
26859;BME280;14429;48.346;16.338;2023-07-31T08:19:05;99653.47;;;26.54;44.92
26859;BME280;14429;48.346;16.338;2023-07-31T08:21:31;99653.47;;;26.54;45.10
26859;BME280;14429;48.346;16.338;2023-07-31T08:23:57;99657.06;;;26.54;45.00
26859;BME280;14429;48.346;16.338;2023-07-31T08:26:22;99648.41;;;26.51;45.05
26859;BME280;14429;48.346;16.338;2023-07-31T08:28:47;99649.69;;;26.55;45.21
26859;BME280;14429;48.346;16.338;2023-07-31T08:31:14;99645.91;;;26.56;44.85
26859;BME280;14429;48.346;16.338;2023-07-31T08:33:40;99651.00;;;26.59;44.53
26859;BME280;14429;48.346;16.338;2023-07-31T08:36:05;99653.94;;;26.64;44.68
26859;BME280;14429;48.346;16.338;2023-07-31T08:38:31;99653.09;;;26.63;44.68
26859;BME280;14429;48.346;16.338;2023-07-31T08:40:57;99652.72;;;26.73;44.30
26859;BME280;14429;48.346;16.338;2023-07-31T08:43:25;99647.81;;;26.62;44.80
26859;BME280;14429;48.346;16.338;2023-07-31T08:45:51;99655.84;;;26.70;44.65
26859;BME280;14429;48.346;16.338;2023-07-31T08:48:17;99642.81;;;26.72;43.99
26859;BME280;14429;48.346;16.338;2023-07-31T08:50:44;99640.41;;;26.50;38.49
26859;BME280;14429;48.346;16.338;2023-07-31T08:53:10;99638.22;;;26.79;44.26
26859;BME280;14429;48.346;16.338;2023-07-31T08:55:36;99630.00;;;26.85;43.68
26859;BME280;14429;48.346;16.338;2023-07-31T08:58:04;99630.84;;;26.79;44.18
26859;BME280;14429;48.346;16.338;2023-07-31T09:00:30;99623.91;;;26.89;43.43
26859;BME280;14429;48.346;16.338;2023-07-31T09:02:59;99626.63;;;26.96;43.69
26859;BME280;14429;48.346;16.338;2023-07-31T09:05:29;99630.84;;;26.98;43.19
26859;BME280;14429;48.346;16.338;2023-07-31T09:07:55;99622.63;;;26.85;43.69
26859;BME280;14429;48.346;16.338;2023-07-31T09:10:21;99620.72;;;26.92;43.32
26859;BME280;14429;48.346;16.338;2023-07-31T09:12:47;99622.22;;;27.01;43.34
26859;BME280;14429;48.346;16.338;2023-07-31T09:15:13;99617.81;;;27.00;42.55
26859;BME280;14429;48.346;16.338;2023-07-31T09:17:39;99622.84;;;26.97;43.52
26859;BME280;14429;48.346;16.338;2023-07-31T09:20:15;99619.88;;;26.98;43.43
26859;BME280;14429;48.346;16.338;2023-07-31T09:22:42;99634.00;;;26.95;43.52
26859;BME280;14429;48.346;16.338;2023-07-31T09:25:15;99631.06;;;26.90;42.51
26859;BME280;14429;48.346;16.338;2023-07-31T09:27:48;99622.00;;;26.96;38.62
26859;BME280;14429;48.346;16.338;2023-07-31T09:30:14;99632.75;;;27.04;43.00
26859;BME280;14429;48.346;16.338;2023-07-31T09:32:39;99632.31;;;26.94;41.85
26859;BME280;14429;48.346;16.338;2023-07-31T09:35:13;99627.69;;;27.01;43.23
26859;BME280;14429;48.346;16.338;2023-07-31T09:37:39;99620.72;;;26.99;43.25
26859;BME280;14429;48.346;16.338;2023-07-31T09:40:07;99613.97;;;26.95;43.34
26859;BME280;14429;48.346;16.338;2023-07-31T09:42:34;99614.81;;;26.95;43.41
26859;BME280;14429;48.346;16.338;2023-07-31T09:45:07;99620.31;;;26.95;43.39
26859;BME280;14429;48.346;16.338;2023-07-31T09:47:32;99610.22;;;26.89;43.30
26859;BME280;14429;48.346;16.338;2023-07-31T09:49:58;99608.50;;;26.95;43.36
26859;BME280;14429;48.346;16.338;2023-07-31T09:52:25;99611.91;;;26.97;43.23
26859;BME280;14429;48.346;16.338;2023-07-31T09:54:51;99599.22;;;26.96;43.34
26859;BME280;14429;48.346;16.338;2023-07-31T09:57:21;99598.59;;;26.81;40.87
26859;BME280;14429;48.346;16.338;2023-07-31T09:59:47;99597.13;;;26.91;43.28
26859;BME280;14429;48.346;16.338;2023-07-31T10:02:15;99600.94;;;26.90;43.45
26859;BME280;14429;48.346;16.338;2023-07-31T10:04:45;99599.66;;;26.86;43.63
26859;BME280;14429;48.346;16.338;2023-07-31T10:07:11;99595.88;;;26.94;43.61
26859;BME280;14429;48.346;16.338;2023-07-31T10:09:36;99582.81;;;26.89;38.05
26859;BME280;14429;48.346;16.338;2023-07-31T10:12:05;99586.59;;;27.01;42.98
26859;BME280;14429;48.346;16.338;2023-07-31T10:14:33;99586.41;;;26.96;37.72
26859;BME280;14429;48.346;16.338;2023-07-31T10:16:59;99583.00;;;27.07;42.64
26859;BME280;14429;48.346;16.338;2023-07-31T10:19:24;99568.69;;;26.80;34.59
26859;BME280;14429;48.346;16.338;2023-07-31T10:21:52;99572.03;;;27.07;42.61
26859;BME280;14429;48.346;16.338;2023-07-31T10:24:17;99571.22;;;27.13;42.52
26859;BME280;14429;48.346;16.338;2023-07-31T10:26:45;99571.41;;;27.18;42.54
26859;BME280;14429;48.346;16.338;2023-07-31T10:29:12;99570.59;;;27.05;42.49
26859;BME280;14429;48.346;16.338;2023-07-31T10:31:40;99568.06;;;27.16;42.47
26859;BME280;14429;48.346;16.338;2023-07-31T10:34:06;99550.34;;;27.12;42.67
26859;BME280;14429;48.346;16.338;2023-07-31T10:36:32;99555.84;;;27.12;42.24
26859;BME280;14429;48.346;16.338;2023-07-31T10:38:57;99553.72;;;27.14;40.58
26859;BME280;14429;48.346;16.338;2023-07-31T10:41:28;99545.72;;;27.06;38.84
26859;BME280;14429;48.346;16.338;2023-07-31T10:43:54;99549.94;;;27.02;42.91
26859;BME280;14429;48.346;16.338;2023-07-31T10:46:22;99543.41;;;27.03;41.71
26859;BME280;14429;48.346;16.338;2023-07-31T10:48:57;99549.09;;;27.08;41.23
26859;BME280;14429;48.346;16.338;2023-07-31T10:51:23;99532.22;;;27.11;41.88
26859;BME280;14429;48.346;16.338;2023-07-31T10:53:48;99542.38;;;27.04;42.81
26859;BME280;14429;48.346;16.338;2023-07-31T10:56:13;99543.63;;;27.08;42.78
26859;BME280;14429;48.346;16.338;2023-07-31T10:58:39;99539.59;;;27.17;42.60
26859;BME280;14429;48.346;16.338;2023-07-31T11:01:05;99533.47;;;27.28;42.25
26859;BME280;14429;48.346;16.338;2023-07-31T11:03:41;99528.41;;;27.18;42.50
26859;BME280;14429;48.346;16.338;2023-07-31T11:06:08;99518.31;;;27.19;40.95
26859;BME280;14429;48.346;16.338;2023-07-31T11:08:35;99523.78;;;27.19;42.23
26859;BME280;14429;48.346;16.338;2023-07-31T11:11:07;99517.88;;;27.22;42.35
26859;BME280;14429;48.346;16.338;2023-07-31T11:13:34;99511.13;;;27.18;42.51
26859;BME280;14429;48.346;16.338;2023-07-31T11:16:04;99514.50;;;27.20;41.67
26859;BME280;14429;48.346;16.338;2023-07-31T11:18:29;99515.75;;;27.24;42.29
26859;BME280;14429;48.346;16.338;2023-07-31T11:20:55;99506.50;;;27.18;39.58
26859;BME280;14429;48.346;16.338;2023-07-31T11:23:22;99501.00;;;27.25;35.79
26859;BME280;14429;48.346;16.338;2023-07-31T11:25:49;99496.16;;;27.27;41.89
26859;BME280;14429;48.346;16.338;2023-07-31T11:28:16;99501.88;;;27.32;41.03
26859;BME280;14429;48.346;16.338;2023-07-31T11:30:44;99491.31;;;27.35;42.15
26859;BME280;14429;48.346;16.338;2023-07-31T11:33:12;99490.91;;;27.32;41.93
26859;BME280;14429;48.346;16.338;2023-07-31T11:35:41;99498.91;;;27.27;42.42
26859;BME280;14429;48.346;16.338;2023-07-31T11:38:07;99486.69;;;27.23;42.37
26859;BME280;14429;48.346;16.338;2023-07-31T11:40:41;99480.38;;;27.29;42.60
26859;BME280;14429;48.346;16.338;2023-07-31T11:43:06;99469.41;;;27.29;42.39
26859;BME280;14429;48.346;16.338;2023-07-31T11:45:33;99479.09;;;27.37;42.15
26859;BME280;14429;48.346;16.338;2023-07-31T11:47:58;99476.53;;;27.42;34.34
26859;BME280;14429;48.346;16.338;2023-07-31T11:50:24;99473.59;;;27.37;42.06
26859;BME280;14429;48.346;16.338;2023-07-31T11:52:50;99478.03;;;27.38;42.30
26859;BME280;14429;48.346;16.338;2023-07-31T11:55:17;99469.97;;;27.43;38.25
26859;BME280;14429;48.346;16.338;2023-07-31T11:57:45;99470.41;;;27.47;40.96
26859;BME280;14429;48.346;16.338;2023-07-31T12:00:11;99466.03;;;27.27;35.23
26859;BME280;14429;48.346;16.338;2023-07-31T12:02:38;99464.75;;;27.35;40.93
26859;BME280;14429;48.346;16.338;2023-07-31T12:05:04;99459.03;;;27.43;41.86
26859;BME280;14429;48.346;16.338;2023-07-31T12:07:43;99451.22;;;27.40;38.73
26859;BME280;14429;48.346;16.338;2023-07-31T12:10:09;99450.63;;;27.38;41.95
26859;BME280;14429;48.346;16.338;2023-07-31T12:12:34;99449.97;;;27.36;36.85
26859;BME280;14429;48.346;16.338;2023-07-31T12:15:01;99440.06;;;27.42;42.34
26859;BME280;14429;48.346;16.338;2023-07-31T12:17:26;99427.63;;;27.39;39.63
26859;BME280;14429;48.346;16.338;2023-07-31T12:19:52;99424.22;;;27.44;42.00
26859;BME280;14429;48.346;16.338;2023-07-31T12:22:17;99422.28;;;27.57;40.61
26859;BME280;14429;48.346;16.338;2023-07-31T12:24:45;99421.38;;;27.63;40.19
26859;BME280;14429;48.346;16.338;2023-07-31T12:27:11;99427.34;;;27.54;41.79
26859;BME280;14429;48.346;16.338;2023-07-31T12:29:37;99416.78;;;27.57;41.54
26859;BME280;14429;48.346;16.338;2023-07-31T12:32:04;99415.81;;;27.39;42.23
26859;BME280;14429;48.346;16.338;2023-07-31T12:34:30;99406.53;;;27.40;42.49
26859;BME280;14429;48.346;16.338;2023-07-31T12:36:55;99405.03;;;27.44;42.26
26859;BME280;14429;48.346;16.338;2023-07-31T12:39:21;99396.97;;;27.55;40.85
26859;BME280;14429;48.346;16.338;2023-07-31T12:41:46;99386.63;;;27.57;41.61
26859;BME280;14429;48.346;16.338;2023-07-31T12:44:12;99384.72;;;27.58;33.71
26859;BME280;14429;48.346;16.338;2023-07-31T12:46:37;99395.41;;;27.72;35.85